Time;durP1;ratioP1;P1;durP2;ratioP2;P2;SDS_P1;SDS_P2;PMS_P1;PMS_P2;Temp;Humidity;BMP_temperature;BMP_pressure;BME280_temperature;BME280_humidity;BME280_pressure;Samples;Min_cycle;Max_cycle;Signal;HPM_P1;HPM_P2
2021/12/19 00:02:29;;;;;;;52.05;24.20;;;-1.50;99.90;;;;;;5015753;28;20041;-67
2021/12/19 00:10:08;;;;;;;47.83;21.40;;;-1.70;99.90;;;;;;5015095;28;19925;-67
2021/12/19 00:12:35;;;;;;;48.92;23.00;;;-1.70;99.90;;;;;;5014984;28;20060;-66
2021/12/19 00:15:03;;;;;;;48.53;22.70;;;-1.70;99.90;;;;;;5015528;28;20107;-66
2021/12/19 00:17:30;;;;;;;53.83;23.30;;;-1.80;99.90;;;;;;5014862;28;20127;-67
2021/12/19 00:19:57;;;;;;;51.88;25.58;;;-1.80;99.90;;;;;;4997739;28;20046;-67
2021/12/19 00:22:43;;;;;;;45.53;20.52;;;-1.90;99.90;;;;;;5010031;28;20659;-67
2021/12/19 00:25:10;;;;;;;48.42;22.83;;;-1.90;99.90;;;;;;5014701;28;20081;-67
2021/12/19 00:27:37;;;;;;;49.83;23.10;;;-1.90;99.90;;;;;;5015597;28;20375;-68
2021/12/19 00:30:04;;;;;;;;;;;-1.90;99.90;;;;;;5015156;28;20099;-66
2021/12/19 00:32:31;;;;;;;55.03;25.07;;;-1.90;99.90;;;;;;5015993;28;19924;-67
2021/12/19 00:34:57;;;;;;;46.30;22.30;;;-1.90;99.90;;;;;;5014588;28;20046;-67
2021/12/19 00:37:24;;;;;;;;;;;-2.00;99.90;;;;;;5016285;28;20123;-66
2021/12/19 00:39:51;;;;;;;47.60;21.83;;;-2.00;99.90;;;;;;5014719;28;19932;-66
2021/12/19 00:42:34;;;;;;;48.95;23.13;;;-2.00;99.90;;;;;;5014906;28;20049;-66
2021/12/19 00:45:15;;;;;;;52.85;23.25;;;-2.00;99.90;;;;;;5014620;28;20509;-66
2021/12/19 00:47:44;;;;;;;53.28;25.20;;;-2.00;99.90;;;;;;5015939;28;20107;-67
2021/12/19 00:50:13;;;;;;;49.65;23.48;;;-2.00;99.90;;;;;;5016123;28;20170;-66
2021/12/19 00:52:42;;;;;;;53.83;24.25;;;-2.00;99.90;;;;;;5014900;28;20294;-67
2021/12/19 00:55:09;;;;;;;49.95;22.67;;;-2.00;99.90;;;;;;5016915;28;20262;-67
2021/12/19 00:57:36;;;;;;;57.45;25.20;;;-2.00;99.90;;;;;;5015358;28;20433;-67
2021/12/19 01:00:05;;;;;;;53.42;24.50;;;-2.10;99.90;;;;;;5014176;28;20596;-67
2021/12/19 01:02:32;;;;;;;54.78;25.05;;;-2.10;99.90;;;;;;5013948;28;20049;-67
2021/12/19 01:04:59;;;;;;;60.38;27.40;;;-2.10;99.90;;;;;;5014476;28;20481;-66
2021/12/19 01:07:26;;;;;;;63.15;27.85;;;-2.10;99.90;;;;;;5015725;28;20542;-67
2021/12/19 01:09:53;;;;;;;66.50;28.02;;;-2.10;99.90;;;;;;5014214;28;20050;-67
2021/12/19 01:12:20;;;;;;;70.85;27.35;;;-2.10;99.90;;;;;;5015130;28;20049;-67
2021/12/19 01:14:47;;;;;;;63.45;25.35;;;-2.10;99.90;;;;;;5015016;28;20069;-66
2021/12/19 01:17:13;;;;;;;64.03;28.83;;;-2.10;99.90;;;;;;5014965;28;20115;-67
2021/12/19 01:19:40;;;;;;;65.25;26.88;;;-2.10;99.90;;;;;;5013661;28;20095;-67
2021/12/19 01:22:07;;;;;;;69.68;30.05;;;-2.10;99.90;;;;;;5014952;28;20050;-67
2021/12/19 01:24:34;;;;;;;65.97;28.88;;;-2.10;99.90;;;;;;5029617;28;20456;-67
2021/12/19 01:27:01;;;;;;;66.88;28.45;;;-2.00;99.90;;;;;;5014508;28;20045;-67
2021/12/19 01:29:28;;;;;;;66.75;28.65;;;-2.00;99.90;;;;;;5014493;28;20046;-66
2021/12/19 01:31:55;;;;;;;62.20;26.20;;;-2.00;99.90;;;;;;5014814;28;20076;-68
2021/12/19 01:34:22;;;;;;;67.28;28.17;;;-1.90;99.90;;;;;;5014360;28;20045;-67
2021/12/19 01:36:49;;;;;;;55.97;25.88;;;-1.90;99.90;;;;;;5004460;28;20468;-68
2021/12/19 01:39:16;;;;;;;58.83;25.95;;;-1.90;99.90;;;;;;5010296;28;20080;-67
2021/12/19 01:41:51;;;;;;;56.88;25.42;;;-1.90;99.90;;;;;;5001408;28;20056;-67
2021/12/19 01:44:18;;;;;;;61.45;27.02;;;-1.80;99.90;;;;;;5018053;28;20045;-68
2021/12/19 01:46:46;;;;;;;58.90;25.60;;;-1.90;99.90;;;;;;5018546;28;20130;-66
2021/12/19 01:49:14;;;;;;;59.22;25.75;;;-1.90;99.90;;;;;;5016693;28;20045;-67
2021/12/19 01:51:42;;;;;;;54.25;25.63;;;-1.80;99.90;;;;;;5018338;28;20111;-66
2021/12/19 01:54:09;;;;;;;59.30;26.08;;;-1.80;99.90;;;;;;5017032;28;20091;-67
2021/12/19 01:56:37;;;;;;;46.28;23.60;;;-1.80;99.90;;;;;;5018267;28;20108;-67
2021/12/19 01:59:06;;;;;;;51.35;24.15;;;-1.90;99.90;;;;;;5016952;28;20591;-67
2021/12/19 02:01:50;;;;;;;52.65;24.48;;;-1.90;99.90;;;;;;5018292;28;20091;-67
2021/12/19 02:04:18;;;;;;;51.45;23.13;;;-1.80;99.90;;;;;;5017861;28;20045;-66
2021/12/19 02:06:45;;;;;;;51.38;23.42;;;-1.80;99.90;;;;;;5017289;28;20041;-67
2021/12/19 02:09:12;;;;;;;50.00;23.27;;;-1.80;99.90;;;;;;5017215;28;20707;-67
2021/12/19 02:11:41;;;;;;;54.53;24.63;;;-1.80;99.90;;;;;;5017816;28;20045;-68
2021/12/19 02:14:09;;;;;;;50.92;25.33;;;-1.80;99.90;;;;;;5017487;28;20452;-67
2021/12/19 02:16:38;;;;;;;54.67;23.55;;;-1.80;99.90;;;;;;5018065;28;20702;-67
2021/12/19 02:19:05;;;;;;;55.80;26.00;;;-1.80;99.90;;;;;;5008083;28;20576;-67
2021/12/19 02:21:32;;;;;;;53.95;24.38;;;-1.80;99.90;;;;;;5001632;28;20053;-67
2021/12/19 02:24:02;;;;;;;44.75;22.65;;;-1.80;99.90;;;;;;5017048;28;20501;-67
2021/12/19 02:26:29;;;;;;;46.92;23.13;;;-1.80;99.90;;;;;;5017585;28;20095;-67
2021/12/19 02:28:56;;;;;;;52.65;24.05;;;-1.80;99.90;;;;;;5016690;28;20038;-67
2021/12/19 02:31:22;;;;;;;;;;;-1.80;99.90;;;;;;5018208;28;20057;-66
2021/12/19 02:34:06;;;;;;;52.15;22.73;;;-1.90;99.90;;;;;;5016966;28;20026;-66
2021/12/19 02:49:50;;;;;;;52.90;23.70;;;-1.90;99.90;;;;;;5015571;28;20049;-66
2021/12/19 02:52:18;;;;;;;;;;;-2.00;99.90;;;;;;5017708;28;20488;-67
2021/12/19 02:54:45;;;;;;;52.58;23.45;;;-1.90;99.90;;;;;;5017120;28;19936;-67
2021/12/19 02:57:12;;;;;;;49.70;23.90;;;-2.00;99.90;;;;;;5016590;28;20478;-66
2021/12/19 02:59:39;;;;;;;50.20;23.27;;;-2.00;99.90;;;;;;5014848;28;20501;-67
2021/12/19 03:02:05;;;;;;;58.50;27.10;;;-2.00;99.90;;;;;;5014605;28;20056;-67
2021/12/19 03:04:32;;;;;;;55.78;25.55;;;-2.00;99.90;;;;;;5016440;28;20057;-66
2021/12/19 03:06:59;;;;;;;64.32;27.45;;;-2.00;99.90;;;;;;5016597;28;20041;-68
2021/12/19 03:12:08;;;;;;;53.55;23.30;;;-2.00;99.90;;;;;;5017098;28;20041;-66
2021/12/19 03:20:10;;;;;;;43.53;21.00;;;-2.10;99.90;;;;;;5015952;28;20111;-66
2021/12/19 03:22:37;;;;;;;42.97;20.48;;;-2.20;99.90;;;;;;5016322;28;20068;-66
2021/12/19 03:25:04;;;;;;;;;;;-2.20;99.90;;;;;;5015994;28;20135;-66
2021/12/19 03:27:31;;;;;;;42.78;19.42;;;-2.20;99.90;;;;;;5017941;28;20016;-68
2021/12/19 03:29:57;;;;;;;41.78;20.63;;;-2.30;99.90;;;;;;5015429;28;20111;-66
2021/12/19 03:32:26;;;;;;;;;;;-2.30;99.90;;;;;;5016800;28;20701;-66
2021/12/19 03:34:52;;;;;;;37.92;18.30;;;-2.40;99.90;;;;;;5015778;28;19925;-66
2021/12/19 03:37:19;;;;;;;;;;;-2.40;99.90;;;;;;5017312;28;20280;-66
2021/12/19 03:42:45;;;;;;;42.13;20.15;;;-2.50;99.90;;;;;;5006715;28;20710;-66
2021/12/19 03:45:15;;;;;;;36.05;20.65;;;-2.50;99.90;;;;;;5016170;28;20049;-66
2021/12/19 03:47:43;;;;;;;40.58;19.48;;;-2.50;99.90;;;;;;5015724;28;20060;-67
2021/12/19 03:50:13;;;;;;;41.08;19.88;;;-2.50;99.90;;;;;;5010703;28;20461;-66
2021/12/19 03:52:40;;;;;;;39.50;19.83;;;-2.50;99.90;;;;;;4996151;28;20042;-66
2021/12/19 03:55:07;;;;;;;41.40;20.00;;;-2.50;99.90;;;;;;4995875;28;20046;-66
2021/12/19 03:57:34;;;;;;;40.97;19.60;;;-2.60;99.90;;;;;;4996785;28;20096;-66
2021/12/19 04:00:03;;;;;;;37.65;18.25;;;-2.60;99.90;;;;;;4994661;28;20064;-66
2021/12/19 04:02:30;;;;;;;34.63;18.92;;;-2.60;99.90;;;;;;5012266;28;20111;-66
2021/12/19 04:04:58;;;;;;;;;;;-2.70;99.90;;;;;;5016326;28;20045;-66
2021/12/19 04:07:27;;;;;;;34.17;16.80;;;-2.70;99.90;;;;;;5016433;28;20033;-66
2021/12/19 04:09:54;;;;;;;35.50;17.98;;;-2.70;99.90;;;;;;5014742;28;20468;-66
2021/12/19 04:12:25;;;;;;;37.35;19.13;;;-2.70;99.90;;;;;;5015887;28;20545;-66
2021/12/19 04:14:51;;;;;;;42.65;20.35;;;-2.70;99.90;;;;;;5015531;28;20049;-65
2021/12/19 04:17:18;;;;;;;;;;;-2.70;99.90;;;;;;5015977;28;20092;-66
2021/12/19 04:19:45;;;;;;;44.33;19.02;;;-2.70;99.90;;;;;;4999664;28;19932;-66
2021/12/19 04:22:12;;;;;;;46.20;21.15;;;-2.70;99.90;;;;;;5005251;28;20907;-64
2021/12/19 04:24:39;;;;;;;40.65;20.55;;;-2.70;99.90;;;;;;5014443;28;20599;-66
2021/12/19 04:27:06;;;;;;;46.47;22.08;;;-2.80;99.90;;;;;;5015384;28;20428;-66
2021/12/19 04:29:33;;;;;;;38.50;18.80;;;-2.80;99.90;;;;;;5014991;28;20288;-66
2021/12/19 04:32:00;;;;;;;56.75;23.48;;;-2.80;99.90;;;;;;5014938;28;20108;-66
2021/12/19 04:34:27;;;;;;;55.63;23.20;;;-2.80;99.90;;;;;;5014050;28;20552;-66
2021/12/19 04:37:01;;;;;;;58.75;23.05;;;-2.70;99.90;;;;;;5015020;28;20434;-66
2021/12/19 04:39:55;;;;;;;64.72;23.92;;;-2.70;99.90;;;;;;5012917;28;20081;-65
2021/12/19 04:55:56;;;;;;;57.45;23.50;;;-2.60;99.90;;;;;;5014870;28;20545;-66
2021/12/19 05:01:36;;;;;;;52.08;22.60;;;-2.60;99.90;;;;;;5014106;28;20037;-66
2021/12/19 05:14:46;;;;;;;57.30;22.65;;;-2.60;99.90;;;;;;5019236;28;20090;-66
2021/12/19 05:17:19;;;;;;;52.75;21.73;;;-2.70;99.90;;;;;;5017945;28;20049;-66
2021/12/19 05:20:33;;;;;;;55.05;24.33;;;-2.70;99.90;;;;;;5013282;28;20674;-66
2021/12/19 05:22:38;;;;;;;58.45;24.50;;;-2.60;99.90;;;;;;5006839;28;20053;-66
2021/12/19 05:25:14;;;;;;;54.47;22.08;;;-2.70;99.90;;;;;;5018452;28;20037;-66
2021/12/19 05:27:46;;;;;;;58.55;24.65;;;-2.70;99.90;;;;;;5019176;28;20555;-66
2021/12/19 05:30:14;;;;;;;60.08;23.02;;;-2.70;99.90;;;;;;5018052;28;20746;-66
2021/12/19 05:32:42;;;;;;;57.92;24.63;;;-2.70;99.90;;;;;;5018536;28;20045;-66
2021/12/19 05:35:13;;;;;;;61.97;24.02;;;-2.70;99.90;;;;;;5017592;28;20068;-66
2021/12/19 05:45:56;;;;;;;67.40;23.58;;;-2.70;99.90;;;;;;5017653;28;20445;-65
2021/12/19 05:48:23;;;;;;;;;;;-2.70;99.90;;;;;;5014739;28;20050;-66
2021/12/19 05:50:50;;;;;;;51.22;19.58;;;-2.70;99.90;;;;;;4999175;28;19932;-65
2021/12/19 05:53:16;;;;;;;;;;;-2.70;99.90;;;;;;5000424;28;20567;-65
2021/12/19 05:55:43;;;;;;;71.80;27.92;;;-2.60;99.90;;;;;;5000095;28;20573;-65
2021/12/19 05:58:10;;;;;;;64.80;26.67;;;-2.60;99.90;;;;;;4998516;28;20074;-65
2021/12/19 06:00:39;;;;;;;84.40;29.85;;;-2.60;99.90;;;;;;4996483;28;20041;-65
2021/12/19 06:03:06;;;;;;;92.10;30.30;;;-2.60;99.90;;;;;;4996353;28;20129;-65
2021/12/19 06:05:33;;;;;;;71.25;28.83;;;-2.60;99.90;;;;;;4998409;28;20049;-65
2021/12/19 06:08:00;;;;;;;85.28;30.05;;;-2.60;99.90;;;;;;4997977;28;20046;-65
2021/12/19 06:10:28;;;;;;;88.18;31.40;;;-2.60;99.90;;;;;;4996235;28;20420;-65
2021/12/19 06:12:57;;;;;;;72.03;27.15;;;-2.60;99.90;;;;;;4998022;28;20050;-65
2021/12/19 06:15:24;;;;;;;84.93;31.83;;;-2.60;99.90;;;;;;4997971;28;20041;-65
2021/12/19 06:17:52;;;;;;;89.07;29.48;;;-2.60;99.90;;;;;;5013079;28;20041;-65
2021/12/19 06:20:20;;;;;;;81.07;29.58;;;-2.60;99.90;;;;;;4997414;28;20568;-65
2021/12/19 06:22:47;;;;;;;75.50;27.33;;;-2.60;99.90;;;;;;5011167;28;20123;-65
2021/12/19 06:25:14;;;;;;;74.60;28.75;;;-2.60;99.90;;;;;;5017687;28;20069;-65
2021/12/19 06:27:41;;;;;;;71.90;27.65;;;-2.60;99.90;;;;;;5017770;28;20049;-65
2021/12/19 06:30:08;;;;;;;76.45;28.73;;;-2.60;99.90;;;;;;5016363;28;20077;-65
2021/12/19 06:32:36;;;;;;;63.35;25.38;;;-2.70;99.90;;;;;;5018136;28;20041;-65
2021/12/19 06:35:07;;;;;;;70.05;26.52;;;-2.70;99.90;;;;;;5016944;28;20135;-65
2021/12/19 06:37:38;;;;;;;77.07;27.63;;;-2.70;99.90;;;;;;5017150;28;20104;-65
2021/12/19 06:40:08;;;;;;;62.70;25.02;;;-2.80;99.90;;;;;;5017261;28;20049;-65
2021/12/19 06:42:35;;;;;;;83.63;29.20;;;-2.80;99.90;;;;;;5017114;28;20061;-66
2021/12/19 06:45:03;;;;;;;71.43;25.48;;;-2.80;99.90;;;;;;5015589;28;20045;-65
2021/12/19 06:47:30;;;;;;;78.07;28.10;;;-2.70;99.90;;;;;;5017166;28;20042;-65
2021/12/19 06:49:57;;;;;;;67.95;26.60;;;-2.70;99.90;;;;;;5011831;28;20041;-66
2021/12/19 06:52:24;;;;;;;64.32;25.98;;;-2.70;99.90;;;;;;4996777;28;20046;-65
2021/12/19 06:54:51;;;;;;;71.10;27.23;;;-2.70;99.90;;;;;;4997134;28;20125;-65
2021/12/19 06:57:17;;;;;;;60.88;24.75;;;-2.70;99.90;;;;;;4997807;28;20514;-65
2021/12/19 06:59:44;;;;;;;68.70;25.70;;;-2.70;99.90;;;;;;4995958;28;20540;-65
2021/12/19 07:02:14;;;;;;;64.72;26.85;;;-2.70;99.90;;;;;;4998089;28;20298;-66
2021/12/19 07:04:41;;;;;;;67.00;27.52;;;-2.70;99.90;;;;;;4998133;28;20056;-66
2021/12/19 07:07:08;;;;;;;59.97;25.20;;;-2.70;99.90;;;;;;4996884;28;20069;-65
2021/12/19 07:09:35;;;;;;;63.17;26.27;;;-2.80;99.90;;;;;;4996656;28;20053;-59
2021/12/19 07:12:02;;;;;;;71.82;27.73;;;-2.80;99.90;;;;;;4996591;28;20041;-60
2021/12/19 07:14:29;;;;;;;68.70;27.45;;;-2.80;99.90;;;;;;4996497;28;20046;-59
2021/12/19 07:16:56;;;;;;;62.08;25.70;;;-2.80;99.90;;;;;;4998744;28;20046;-59
2021/12/19 07:19:22;;;;;;;59.50;24.92;;;-2.80;99.90;;;;;;4996249;28;20196;-59
2021/12/19 07:21:49;;;;;;;;;;;-2.90;99.90;;;;;;5003475;28;20045;-59
2021/12/19 07:24:16;;;;;;;53.70;21.35;;;-2.90;99.90;;;;;;5016250;28;20138;-60
2021/12/19 07:26:43;;;;;;;50.50;22.38;;;-2.90;99.90;;;;;;5017639;28;20077;-60
2021/12/19 07:29:10;;;;;;;46.28;21.15;;;-2.90;99.90;;;;;;5016602;28;20138;-59
2021/12/19 07:31:38;;;;;;;50.08;21.35;;;-2.90;99.90;;;;;;5017411;28;20076;-60
2021/12/19 07:34:06;;;;;;;47.38;20.05;;;-2.90;99.90;;;;;;5014390;28;20077;-59
2021/12/19 07:36:40;;;;;;;41.67;20.25;;;-2.90;99.90;;;;;;5015923;28;20079;-59
2021/12/19 07:39:12;;;;;;;38.58;19.02;;;-2.90;99.90;;;;;;5015170;28;20230;-60
2021/12/19 07:41:39;;;;;;;44.70;20.58;;;-2.90;99.90;;;;;;5016060;28;20053;-59
2021/12/19 07:44:08;;;;;;;41.33;19.10;;;-2.90;99.90;;;;;;5013319;28;20476;-59
2021/12/19 07:46:35;;;;;;;45.33;20.48;;;-2.90;99.90;;;;;;5015952;28;20053;-58
2021/12/19 07:49:02;;;;;;;40.40;18.45;;;-2.90;99.90;;;;;;5015265;28;20122;-59
2021/12/19 07:51:29;;;;;;;37.97;18.42;;;-2.90;99.90;;;;;;5015490;28;20045;-59
2021/12/19 07:53:55;;;;;;;35.75;17.33;;;-2.90;99.90;;;;;;5015790;28;20049;-58
2021/12/19 07:56:23;;;;;;;34.08;16.05;;;-2.90;99.90;;;;;;5014502;28;20041;-59
2021/12/19 07:58:49;;;;;;;32.47;16.10;;;-2.90;99.90;;;;;;5015421;28;20044;-59
2021/12/19 08:01:16;;;;;;;;;;;-3.00;99.90;;;;;;5016382;28;20115;-60
2021/12/19 08:03:43;;;;;;;36.35;17.40;;;-3.00;99.90;;;;;;5015426;28;19925;-59
2021/12/19 08:06:10;;;;;;;39.50;18.30;;;-3.00;99.90;;;;;;5015190;28;20072;-61
2021/12/19 08:08:37;;;;;;;43.90;18.67;;;-3.00;99.90;;;;;;5015674;28;20068;-60
2021/12/19 08:13:49;;;;;;;47.80;19.92;;;-3.10;99.90;;;;;;4995170;28;20080;-60
2021/12/19 08:16:16;;;;;;;48.92;21.13;;;-3.10;99.90;;;;;;4996929;28;20034;-60
2021/12/19 08:18:42;;;;;;;50.67;19.85;;;-3.10;99.90;;;;;;4997842;28;20252;-60
2021/12/19 08:21:09;;;;;;;;;;;-3.10;99.90;;;;;;4995880;28;20496;-60
2021/12/19 08:23:36;;;;;;;58.55;21.77;;;-3.10;99.90;;;;;;4997879;28;19936;-60
2021/12/19 08:26:03;;;;;;;61.25;22.25;;;-3.10;99.90;;;;;;4994959;28;20099;-60
2021/12/19 08:28:30;;;;;;;54.42;22.38;;;-3.00;99.90;;;;;;4994656;28;20491;-58
2021/12/19 08:30:57;;;;;;;66.03;24.13;;;-3.00;99.90;;;;;;4993371;28;20457;-58
2021/12/19 08:33:23;;;;;;;71.03;27.00;;;-2.90;99.90;;;;;;4995156;28;20088;-59
2021/12/19 08:35:50;;;;;;;67.88;26.30;;;-2.90;99.90;;;;;;4994555;28;20046;-60
2021/12/19 08:38:17;;;;;;;;;;;-2.80;99.90;;;;;;4996952;28;20054;-60
2021/12/19 08:40:46;;;;;;;72.15;26.45;;;-2.70;99.90;;;;;;4993656;28;19926;-60
2021/12/19 08:43:13;;;;;;;69.93;25.60;;;-2.70;99.90;;;;;;5009889;28;20536;-60
2021/12/19 08:45:40;;;;;;;69.35;25.20;;;-2.60;99.90;;;;;;5015300;28;20132;-60
2021/12/19 08:48:09;;;;;;;64.93;24.65;;;-2.50;99.90;;;;;;5019287;28;21076;-60
2021/12/19 08:50:36;;;;;;;68.18;28.13;;;-2.50;99.90;;;;;;5018690;28;20042;-60
2021/12/19 08:53:03;;;;;;;54.33;22.40;;;-2.40;99.90;;;;;;5018987;28;20050;-60
2021/12/19 08:55:33;;;;;;;45.22;19.63;;;-2.40;99.90;;;;;;5019560;28;20068;-60
2021/12/19 08:58:00;;;;;;;42.67;18.67;;;-2.40;99.90;;;;;;5019102;28;20709;-60
2021/12/19 09:00:27;;;;;;;;;;;-2.30;99.90;;;;;;5019503;28;20049;-60
2021/12/19 09:02:55;;;;;;;42.57;18.17;;;-2.30;99.90;;;;;;5018798;28;19964;-60
2021/12/19 09:05:26;;;;;;;45.75;18.48;;;-2.30;99.90;;;;;;5018959;28;20452;-60
2021/12/19 09:07:53;;;;;;;48.83;19.70;;;-2.30;99.90;;;;;;5034355;28;20060;-60
2021/12/19 09:10:21;;;;;;;50.33;19.88;;;-2.20;99.90;;;;;;4999999;28;20069;-59
2021/12/19 09:12:49;;;;;;;45.67;20.45;;;-2.20;99.90;;;;;;4998030;28;20457;-60
2021/12/19 09:15:16;;;;;;;46.55;19.95;;;-2.20;99.90;;;;;;4998074;28;20053;-61
2021/12/19 09:17:43;;;;;;;48.78;19.42;;;-2.10;99.90;;;;;;5012830;28;20095;-62
2021/12/19 09:20:11;;;;;;;49.63;20.60;;;-2.00;99.90;;;;;;4998355;28;20042;-62
2021/12/19 09:22:38;;;;;;;55.75;23.02;;;-1.90;99.90;;;;;;5011798;28;20051;-62
2021/12/19 09:25:17;;;;;;;53.88;22.85;;;-1.80;99.90;;;;;;5016261;28;20057;-59
2021/12/19 09:27:44;;;;;;;54.28;22.73;;;-1.70;99.90;;;;;;5018015;28;20060;-62
2021/12/19 09:30:11;;;;;;;57.88;25.45;;;-1.50;99.90;;;;;;5017533;28;20046;-62
2021/12/19 09:32:38;;;;;;;74.93;26.13;;;-1.40;99.90;;;;;;5018681;28;20256;-63
2021/12/19 09:35:05;;;;;;;58.53;25.05;;;-1.30;99.90;;;;;;5015577;28;20041;-60
2021/12/19 09:37:35;;;;;;;50.17;22.75;;;-1.20;99.90;;;;;;5018410;28;20045;-59
2021/12/19 09:40:10;;;;;;;60.00;22.98;;;-1.20;99.90;;;;;;5018339;28;20433;-62
2021/12/19 09:42:44;;;;;;;50.30;22.08;;;-1.00;99.90;;;;;;5007572;28;20445;-63
2021/12/19 09:45:12;;;;;;;46.20;22.48;;;-0.90;99.90;;;;;;4996699;28;20393;-59
2021/12/19 09:47:39;;;;;;;51.22;23.13;;;-0.70;99.90;;;;;;4997941;28;20492;-59
2021/12/19 09:50:07;;;;;;;55.75;22.73;;;-0.50;99.90;;;;;;5013618;28;20482;-60
2021/12/19 09:52:34;;;;;;;47.78;23.00;;;-0.40;99.90;;;;;;5017665;28;20046;-60
2021/12/19 09:55:04;;;;;;;40.67;19.52;;;-0.20;99.90;;;;;;5016293;28;20322;-60
2021/12/19 09:57:31;;;;;;;42.55;20.13;;;-0.10;99.90;;;;;;5016458;28;20037;-59
2021/12/19 09:59:58;;;;;;;40.47;20.92;;;0.00;99.90;;;;;;5016571;28;20107;-60
2021/12/19 10:02:25;;;;;;;35.70;19.17;;;0.00;99.90;;;;;;5017734;28;20115;-60
2021/12/19 10:04:52;;;;;;;;;;;0.00;99.90;;;;;;5017273;28;20122;-59
2021/12/19 10:07:23;;;;;;;44.25;20.17;;;0.00;99.90;;;;;;5018111;28;20374;-60
2021/12/19 10:10:04;;;;;;;43.65;21.33;;;0.10;99.90;;;;;;5016680;28;20576;-58
2021/12/19 10:15:13;;;;;;;41.92;20.17;;;0.10;99.90;;;;;;5017194;28;20380;-61
2021/12/19 10:17:40;;;;;;;36.22;18.20;;;0.10;99.90;;;;;;5017374;28;20053;-60
2021/12/19 10:20:12;;;;;;;42.65;20.88;;;0.10;99.90;;;;;;5012285;28;20046;-59
2021/12/19 10:22:45;;;;;;;45.35;22.50;;;0.10;99.90;;;;;;4997590;28;20623;-59
2021/12/19 10:25:30;;;;;;;40.38;20.33;;;0.10;99.90;;;;;;4998203;28;20050;-59
2021/12/19 10:28:01;;;;;;;42.13;20.70;;;0.10;99.90;;;;;;4997593;28;20049;-60
2021/12/19 10:30:32;;;;;;;45.58;22.90;;;0.20;99.90;;;;;;4997835;28;20050;-61
2021/12/19 10:33:12;;;;;;;42.10;20.92;;;0.30;99.90;;;;;;4997617;28;20054;-60
2021/12/19 10:35:54;;;;;;;43.83;21.52;;;0.40;99.90;;;;;;5012408;28;20049;-61
2021/12/19 10:38:28;;;;;;;42.58;20.90;;;0.40;99.90;;;;;;4998337;28;20041;-61
2021/12/19 10:41:01;;;;;;;40.55;21.02;;;0.40;99.90;;;;;;4995728;28;20096;-61
2021/12/19 10:43:31;;;;;;;45.00;22.67;;;0.50;99.90;;;;;;5013967;28;20732;-61
2021/12/19 10:46:01;;;;;;;44.92;21.10;;;0.50;99.90;;;;;;5016588;28;20049;-61
2021/12/19 10:48:27;;;;;;;47.92;22.77;;;0.50;99.90;;;;;;5018633;28;20038;-62
2021/12/19 10:50:55;;;;;;;;;;;0.50;99.90;;;;;;5003603;28;20056;-62
2021/12/19 10:53:39;;;;;;;51.70;24.10;;;0.60;99.90;;;;;;4997524;28;19932;-63
2021/12/19 10:56:12;;;;;;;52.15;25.15;;;0.50;99.90;;;;;;4997361;28;20042;-62
2021/12/19 10:58:44;;;;;;;51.42;23.70;;;0.50;99.90;;;;;;5004948;28;20094;-61
2021/12/19 11:01:28;;;;;;;51.40;24.52;;;0.50;99.90;;;;;;5017082;28;20052;-59
2021/12/19 11:04:13;;;;;;;58.08;27.05;;;0.50;99.90;;;;;;5016860;28;20053;-60
2021/12/19 11:06:41;;;;;;;49.83;24.55;;;0.70;99.90;;;;;;5017468;28;20467;-58
2021/12/19 11:09:09;;;;;;;55.63;25.65;;;0.70;99.90;;;;;;5016168;28;20046;-58
2021/12/19 11:11:41;;;;;;;50.72;24.67;;;0.70;99.90;;;;;;5016796;28;20640;-57
2021/12/19 11:14:14;;;;;;;44.42;22.70;;;0.60;99.90;;;;;;5017585;28;20045;-57
2021/12/19 11:16:41;;;;;;;55.67;24.83;;;0.60;99.90;;;;;;5017426;28;20044;-62
2021/12/19 11:19:08;;;;;;;46.35;22.88;;;0.50;99.90;;;;;;5016612;28;20083;-62
2021/12/19 11:21:36;;;;;;;47.88;22.67;;;0.50;99.90;;;;;;5012886;28;20042;-62
2021/12/19 11:24:10;;;;;;;44.65;22.23;;;0.50;99.90;;;;;;4997214;28;20066;-61
2021/12/19 11:26:38;;;;;;;48.38;22.50;;;0.50;99.90;;;;;;4997813;28;20050;-62
2021/12/19 11:29:06;;;;;;;42.17;20.25;;;0.60;99.90;;;;;;4995845;28;20049;-62
2021/12/19 11:31:34;;;;;;;43.85;22.33;;;0.60;99.90;;;;;;4996506;28;20460;-62
2021/12/19 11:34:04;;;;;;;43.50;21.00;;;0.70;99.90;;;;;;4995740;28;20038;-62
2021/12/19 11:36:41;;;;;;;49.22;24.02;;;0.70;99.90;;;;;;4996407;28;20052;-62
2021/12/19 11:39:08;;;;;;;45.35;23.98;;;0.80;99.90;;;;;;4996340;28;20045;-61
2021/12/19 11:41:36;;;;;;;46.58;24.10;;;1.00;99.90;;;;;;4995898;28;20283;-61
2021/12/19 11:44:07;;;;;;;52.25;24.35;;;1.30;99.90;;;;;;5015931;28;20045;-62
2021/12/19 11:46:51;;;;;;;46.85;22.65;;;1.70;99.90;;;;;;5015974;28;20041;-62
2021/12/19 11:49:23;;;;;;;41.25;21.58;;;2.20;99.90;;;;;;5003432;28;20050;-62
2021/12/19 11:52:09;;;;;;;40.45;20.33;;;2.60;99.90;;;;;;4996082;28;20053;-61
2021/12/19 11:54:36;;;;;;;40.70;19.50;;;3.10;99.90;;;;;;4995764;28;20276;-61
2021/12/19 11:57:09;;;;;;;;;;;3.70;99.90;;;;;;4995998;28;20096;-62
2021/12/19 11:59:39;;;;;;;33.10;17.77;;;4.10;99.90;;;;;;4994364;28;20562;-61
2021/12/19 12:02:25;;;;;;;33.00;17.27;;;4.50;99.90;;;;;;4996210;28;20049;-61
2021/12/19 12:05:19;;;;;;;26.20;14.75;;;4.90;99.90;;;;;;4996708;28;20049;-61
2021/12/19 12:08:10;;;;;;;23.63;13.25;;;5.30;99.90;;;;;;4995898;28;20045;-59
2021/12/19 12:10:52;;;;;;;27.23;14.80;;;5.70;99.90;;;;;;4994961;28;20058;-59
2021/12/19 12:13:29;;;;;;;28.92;13.98;;;6.00;99.90;;;;;;4996150;28;20305;-59
2021/12/19 12:16:25;;;;;;;30.73;15.30;;;6.30;99.90;;;;;;4995859;28;20559;-59
2021/12/19 12:18:58;;;;;;;25.30;13.32;;;6.60;99.90;;;;;;4998752;28;20864;-62
2021/12/19 12:24:03;;;;;;;23.67;13.50;;;6.90;99.90;;;;;;5016470;28;20046;-59
2021/12/19 12:26:44;;;;;;;26.30;13.80;;;7.10;99.90;;;;;;5016473;28;20099;-60
2021/12/19 12:29:12;;;;;;;23.00;13.82;;;7.20;99.90;;;;;;5014516;28;20231;-60
2021/12/19 12:31:42;;;;;;;24.98;13.93;;;7.20;99.90;;;;;;5013924;28;20124;-61
2021/12/19 12:34:12;;;;;;;27.83;13.13;;;7.40;99.90;;;;;;5013294;28;20092;-59
2021/12/19 12:36:40;;;;;;;20.25;12.85;;;7.50;99.90;;;;;;5013398;28;20049;-58
2021/12/19 12:39:21;;;;;;;17.35;10.80;;;7.60;99.90;;;;;;5014331;28;20057;-62
2021/12/19 12:44:16;;;;;;;;;;;7.90;99.90;;;;;;5029916;28;20052;-59
2021/12/19 12:46:44;;;;;;;21.70;11.52;;;8.00;99.90;;;;;;5013563;28;19925;-58
2021/12/19 12:49:25;;;;;;;20.52;12.68;;;8.10;99.90;;;;;;5013479;28;20053;-59
2021/12/19 12:51:58;;;;;;;35.72;19.65;;;8.20;99.90;;;;;;5014459;28;20048;-59
2021/12/19 12:54:34;;;;;;;36.45;19.38;;;8.00;99.90;;;;;;5012406;28;20433;-59
2021/12/19 12:57:09;;;;;;;35.42;18.80;;;7.90;99.90;;;;;;5014904;28;20494;-59
2021/12/19 12:59:39;;;;;;;38.30;20.88;;;7.70;99.90;;;;;;5013877;28;20056;-59
2021/12/19 13:02:16;;;;;;;40.50;22.55;;;7.60;99.90;;;;;;5014607;28;20057;-60
2021/12/19 13:04:50;;;;;;;36.42;20.83;;;7.50;99.90;;;;;;5013196;28;20586;-59
2021/12/19 13:07:19;;;;;;;36.08;20.55;;;7.50;99.90;;;;;;5015684;28;20049;-58
2021/12/19 13:09:51;;;;;;;36.03;21.88;;;7.60;99.90;;;;;;5014247;28;20183;-58
2021/12/19 13:12:39;;;;;;;35.05;19.00;;;7.70;99.90;;;;;;5014153;28;20580;-58
2021/12/19 13:15:12;;;;;;;37.70;19.90;;;7.70;99.90;;;;;;5014656;28;20379;-58
2021/12/19 13:17:45;;;;;;;35.67;18.55;;;7.80;99.90;;;;;;5013391;28;20143;-58
2021/12/19 13:20:20;;;;;;;34.55;20.25;;;7.90;99.90;;;;;;4996006;28;20073;-58
2021/12/19 13:22:56;;;;;;;38.95;21.40;;;7.90;99.90;;;;;;4995013;28;20045;-59
2021/12/19 13:25:25;;;;;;;40.17;21.25;;;7.90;99.90;;;;;;4995010;28;20640;-59
2021/12/19 13:27:57;;;;;;;36.03;20.10;;;7.90;99.90;;;;;;4994854;28;20046;-59
2021/12/19 13:30:31;;;;;;;33.00;19.10;;;8.00;99.90;;;;;;4994855;28;20053;-58
2021/12/19 13:33:04;;;;;;;34.10;20.00;;;8.10;99.90;;;;;;4996568;28;20053;-58
2021/12/19 13:35:42;;;;;;;33.72;19.90;;;8.10;99.90;;;;;;4998802;28;20046;-60
2021/12/19 13:38:12;;;;;;;36.22;20.50;;;8.10;99.90;;;;;;4997670;28;20045;-59
2021/12/19 13:40:48;;;;;;;31.88;19.55;;;8.20;99.90;;;;;;4998035;28;20057;-59
2021/12/19 13:43:20;;;;;;;42.78;22.05;;;8.20;99.90;;;;;;4998694;28;20563;-58
2021/12/19 13:45:55;;;;;;;42.13;22.80;;;8.20;99.90;;;;;;4998190;28;20588;-59
2021/12/19 13:48:40;;;;;;;39.22;21.88;;;8.20;99.90;;;;;;4997976;28;20123;-59
2021/12/19 13:51:12;;;;;;;40.55;23.60;;;8.20;99.90;;;;;;5016858;28;20547;-59
2021/12/19 13:53:45;;;;;;;39.38;23.48;;;8.20;99.90;;;;;;5018245;28;20439;-59
2021/12/19 13:56:15;;;;;;;39.50;24.38;;;8.10;99.90;;;;;;5017584;28;20140;-59
2021/12/19 13:58:45;;;;;;;42.38;25.48;;;8.00;99.90;;;;;;5018491;28;20049;-59
2021/12/19 14:01:18;;;;;;;40.40;23.77;;;8.00;99.90;;;;;;5017546;28;20135;-59
2021/12/19 14:03:59;;;;;;;40.25;23.98;;;8.00;99.90;;;;;;5018373;28;20119;-62
2021/12/19 14:06:29;;;;;;;38.88;24.20;;;8.00;99.90;;;;;;5018747;28;20439;-60